Berkley, MI

3:47 PM EDT on August 30, 2014 (GMT -0400)
Selfridge Angb | Change Station
CLOSE
Current Station
Airport
Location: Mt. Clemens,
Elevation: 581 ft
Nearby Weather Stations

Elev 581 ft 42.61 °N, 82.84 °W | Updated 52 minutes ago

Overcast
Overcast
84 °F
Feels Like 86 °F
N
15
Wind Variable Wind from SW
Gusts 23 mph

Today
High -- | Low -- °F
--% Chance of Precip.
Yesterday
High -- | Low -- °F
Precip. -- in
6:55 AM 8:10 PM
Waxing Crescent, 24% visible
Pressure 29.92 in
Visibility 10.0 miles
Clouds Few 3500 ft
Scattered Clouds 4300 ft
Mostly Cloudy 6000 ft
Overcast 15000 ft
Heat Index 86 °F
Dew Point 66 °F
Humidity 53%
Rainfall 0.00 in
Snow Depth Not available.
UV 2 out of 12
Pollen 8.60 out of 12
Ozone Good
PM2.5 Moderate
Flu Activity Not available.
METAR KMTC 301855Z 23013G20KT 10SM FEW035 SCT043 BKN060 OVC150 29/19 A2990 RMK SLP130 T02900186

More Conditions Fewer Conditions

Pressure 29.92 in
Visibility 10.0 miles
Clouds Few 3500 ft
Scattered Clouds 4300 ft
Mostly Cloudy 6000 ft
Overcast 15000 ft
Heat Index 86 °F
Dew Point 66 °F
Humidity 53%
Rainfall 0.00 in
Snow Depth Not available.
UV 2 out of 12
Pollen 8.60 out of 12
Ozone Good
PM2.5 Moderate
Flu Activity Not available.
METAR KMTC 301855Z 23013G20KT 10SM FEW035 SCT043 BKN060 OVC150 29/19 A2990 RMK SLP130 T02900186

More Conditions Fewer Conditions

10-Day Weather Forecast

Almanac

Astronomy

Aug. 30, 2014 Rise Set
Actual Time 6:55 AM EDT 8:10 PM EDT
Civil Twilight 6:26 AM EDT 8:39 PM EDT
Nautical Twilight 5:51 AM EDT 9:14 PM EDT
Astronomical Twilight 5:14 AM EDT 9:50 PM EDT
Moon 11:48 AM EDT 10:36 PM EDT
Length of Visible Light 14h 12m
Length of Day
13h 14m
Tomorrow will be 2m 45s shorter.
Waxing Crescent, 24% of the Moon is Illuminated
Today
Waxing Crescent
Sep 2
First Quarter
Sep 8
Full
Sep 15
Last Quarter
Sep 24
New

Today's Extremes

State Highs State Lows

Community

WunderPhotos

Upload Photos

1,748,614 photos uploaded!

WunderBlogs® & News

Nearby

Air Quality

  Air Quality AQ Index Pollutant
Yesterday Good
PM10
Yesterday Good
OZONE
Current Moderate
PM2.5
Current Good
OZONE
Saturday Moderate
PM2.5
Saturday Good
OZONE
Sunday Good
OZONE
Sunday Good
PM2.5
Monday Good
OZONE
Monday Good
PM2.5
Tuesday Good
OZONE
Tuesday Good
PM2.5

Snow Depth

Station Depth Elevation
No new snow has been reported.

Earthquake Activity

City Distance Mag. Time & Date
No recent earthquake activity has been reported nearby.
Minimum magnitude displayed is 2.5.

Coastal Water Temperatures

Place Temperature
Marblehead, OH 73.9 °F

Nearby Weather Stations